Terminal Aerodrome Forecast
Issued by NWS Tulsa, OK

Home | Current Version | Previous Version | Text Only | Print | Product List | Glossary On
Versions: 1 2 3 4 5 6 7 8 9 10 11 12 13 14 15
696
FTUS44 KTSA 220727 AAA
TAFFSM
TAF AMD
KFSM 220727Z 2207/2306 00000KT 4SM BR SKC
     FM220900 VRB03KT 3SM BR SKC
      TEMPO 2210/2214 1SM BR SCT002
     FM221600 VRB03KT P6SM SKC=

USA.gov is the U.S. government's official web portal to all federal, state and local government web resources and services.